sensor_id;sensor_type;location;lat;lon;timestamp;temperature;humidity
9271;DHT22;4673;53.458;9.940;2022-11-21T00:00:16;-1.90;96.90
9271;DHT22;4673;53.458;9.940;2022-11-21T00:02:42;-1.90;97.00
9271;DHT22;4673;53.458;9.940;2022-11-21T00:05:07;-1.90;97.30
9271;DHT22;4673;53.458;9.940;2022-11-21T00:07:33;-1.80;97.50
9271;DHT22;4673;53.458;9.940;2022-11-21T00:09:59;-1.70;97.70
9271;DHT22;4673;53.458;9.940;2022-11-21T00:12:24;-1.60;97.80
9271;DHT22;4673;53.458;9.940;2022-11-21T00:14:50;-1.50;98.10
9271;DHT22;4673;53.458;9.940;2022-11-21T00:17:16;-1.50;98.20
9271;DHT22;4673;53.458;9.940;2022-11-21T00:19:41;-1.40;98.20
9271;DHT22;4673;53.458;9.940;2022-11-21T00:22:07;-1.40;98.20
9271;DHT22;4673;53.458;9.940;2022-11-21T00:24:33;-1.40;98.20
9271;DHT22;4673;53.458;9.940;2022-11-21T00:26:58;-1.40;98.30
9271;DHT22;4673;53.458;9.940;2022-11-21T00:29:24;-1.40;98.30
9271;DHT22;4673;53.458;9.940;2022-11-21T00:31:50;-1.40;98.40
9271;DHT22;4673;53.458;9.940;2022-11-21T00:34:15;-1.30;98.70
9271;DHT22;4673;53.458;9.940;2022-11-21T00:36:41;-1.20;98.70
9271;DHT22;4673;53.458;9.940;2022-11-21T00:39:07;-1.10;98.80
9271;DHT22;4673;53.458;9.940;2022-11-21T00:41:32;-1.10;98.90
9271;DHT22;4673;53.458;9.940;2022-11-21T00:43:58;-1.00;99.00
9271;DHT22;4673;53.458;9.940;2022-11-21T00:46:24;-0.90;99.10
9271;DHT22;4673;53.458;9.940;2022-11-21T00:48:49;-0.90;99.10
9271;DHT22;4673;53.458;9.940;2022-11-21T00:51:15;-0.80;99.10
9271;DHT22;4673;53.458;9.940;2022-11-21T00:53:41;-0.80;99.00
9271;DHT22;4673;53.458;9.940;2022-11-21T00:56:07;-0.80;99.10
9271;DHT22;4673;53.458;9.940;2022-11-21T00:58:32;-0.90;99.00
9271;DHT22;4673;53.458;9.940;2022-11-21T01:01:07;-0.90;99.00
9271;DHT22;4673;53.458;9.940;2022-11-21T01:03:33;-0.90;98.90
9271;DHT22;4673;53.458;9.940;2022-11-21T01:06:04;-1.00;98.80
9271;DHT22;4673;53.458;9.940;2022-11-21T01:08:30;-1.00;98.60
9271;DHT22;4673;53.458;9.940;2022-11-21T01:10:56;-1.00;98.60
9271;DHT22;4673;53.458;9.940;2022-11-21T01:13:26;-1.00;98.70
9271;DHT22;4673;53.458;9.940;2022-11-21T01:15:51;-1.10;98.70
9271;DHT22;4673;53.458;9.940;2022-11-21T01:18:17;-1.20;98.50
9271;DHT22;4673;53.458;9.940;2022-11-21T01:20:43;-1.30;98.40
9271;DHT22;4673;53.458;9.940;2022-11-21T01:23:08;-1.30;98.30
9271;DHT22;4673;53.458;9.940;2022-11-21T01:25:34;-1.40;98.20
9271;DHT22;4673;53.458;9.940;2022-11-21T01:28:00;-1.50;98.20
9271;DHT22;4673;53.458;9.940;2022-11-21T01:30:26;-1.60;97.90
9271;DHT22;4673;53.458;9.940;2022-11-21T01:32:51;-1.70;97.90
9271;DHT22;4673;53.458;9.940;2022-11-21T01:35:17;-1.70;97.90
9271;DHT22;4673;53.458;9.940;2022-11-21T01:37:47;-1.80;97.80
9271;DHT22;4673;53.458;9.940;2022-11-21T01:40:13;-1.80;97.90
9271;DHT22;4673;53.458;9.940;2022-11-21T01:45:50;-1.90;98.00
9271;DHT22;4673;53.458;9.940;2022-11-21T01:48:17;-2.00;97.80
9271;DHT22;4673;53.458;9.940;2022-11-21T01:50:43;-2.10;97.80
9271;DHT22;4673;53.458;9.940;2022-11-21T01:53:10;-2.10;97.80
9271;DHT22;4673;53.458;9.940;2022-11-21T01:55:35;-2.20;97.70
9271;DHT22;4673;53.458;9.940;2022-11-21T01:58:01;-2.30;97.80
9271;DHT22;4673;53.458;9.940;2022-11-21T02:00:31;-2.30;97.90
9271;DHT22;4673;53.458;9.940;2022-11-21T02:03:04;-2.30;98.20
9271;DHT22;4673;53.458;9.940;2022-11-21T02:05:32;-2.20;98.40
9271;DHT22;4673;53.458;9.940;2022-11-21T02:08:18;-2.20;98.50
9271;DHT22;4673;53.458;9.940;2022-11-21T02:11:24;-2.30;98.50
9271;DHT22;4673;53.458;9.940;2022-11-21T02:13:51;-2.30;98.40
9271;DHT22;4673;53.458;9.940;2022-11-21T02:16:17;-2.40;98.40
9271;DHT22;4673;53.458;9.940;2022-11-21T02:18:43;-2.50;98.60
9271;DHT22;4673;53.458;9.940;2022-11-21T02:21:41;-2.40;98.80
9271;DHT22;4673;53.458;9.940;2022-11-21T02:24:21;-2.40;99.10
9271;DHT22;4673;53.458;9.940;2022-11-21T02:26:52;-2.30;99.40
9271;DHT22;4673;53.458;9.940;2022-11-21T02:29:18;-2.30;99.40
9271;DHT22;4673;53.458;9.940;2022-11-21T02:31:44;-2.30;99.50
9271;DHT22;4673;53.458;9.940;2022-11-21T02:34:09;-2.30;99.50
9271;DHT22;4673;53.458;9.940;2022-11-21T02:36:46;-2.20;99.60
9271;DHT22;4673;53.458;9.940;2022-11-21T02:39:32;-2.10;99.80
9271;DHT22;4673;53.458;9.940;2022-11-21T02:42:16;-2.10;99.80
9271;DHT22;4673;53.458;9.940;2022-11-21T02:47:37;-2.10;99.80
9271;DHT22;4673;53.458;9.940;2022-11-21T02:50:14;-2.00;99.90
9271;DHT22;4673;53.458;9.940;2022-11-21T02:52:41;-2.00;99.90
9271;DHT22;4673;53.458;9.940;2022-11-21T02:55:07;-1.90;99.90
9271;DHT22;4673;53.458;9.940;2022-11-21T02:57:33;-1.80;99.90
9271;DHT22;4673;53.458;9.940;2022-11-21T02:59:59;-1.80;99.90
9271;DHT22;4673;53.458;9.940;2022-11-21T03:02:24;-1.70;99.90
9271;DHT22;4673;53.458;9.940;2022-11-21T03:04:50;-1.70;99.90
9271;DHT22;4673;53.458;9.940;2022-11-21T03:07:16;-1.70;99.90
9271;DHT22;4673;53.458;9.940;2022-11-21T03:09:41;-1.50;99.90
9271;DHT22;4673;53.458;9.940;2022-11-21T03:12:08;-1.50;99.90
9271;DHT22;4673;53.458;9.940;2022-11-21T03:14:35;-1.50;99.90
9271;DHT22;4673;53.458;9.940;2022-11-21T03:17:01;-1.40;99.90
9271;DHT22;4673;53.458;9.940;2022-11-21T03:19:27;-1.60;99.90
9271;DHT22;4673;53.458;9.940;2022-11-21T03:21:53;-1.60;99.90
9271;DHT22;4673;53.458;9.940;2022-11-21T03:24:18;-1.70;99.90
9271;DHT22;4673;53.458;9.940;2022-11-21T03:26:44;-1.70;99.90
9271;DHT22;4673;53.458;9.940;2022-11-21T03:29:09;-1.80;99.90
9271;DHT22;4673;53.458;9.940;2022-11-21T03:31:35;-1.80;99.90
9271;DHT22;4673;53.458;9.940;2022-11-21T03:34:01;-1.80;99.90
9271;DHT22;4673;53.458;9.940;2022-11-21T03:36:27;-1.90;99.90
9271;DHT22;4673;53.458;9.940;2022-11-21T03:38:55;-1.90;99.90
9271;DHT22;4673;53.458;9.940;2022-11-21T03:41:24;-1.90;99.90
9271;DHT22;4673;53.458;9.940;2022-11-21T03:44:07;-2.00;99.90
9271;DHT22;4673;53.458;9.940;2022-11-21T03:46:36;-2.00;99.90
9271;DHT22;4673;53.458;9.940;2022-11-21T03:49:02;-2.10;99.90
9271;DHT22;4673;53.458;9.940;2022-11-21T03:51:28;-2.10;99.90
9271;DHT22;4673;53.458;9.940;2022-11-21T03:53:54;-2.20;99.80
9271;DHT22;4673;53.458;9.940;2022-11-21T03:56:20;-2.20;99.80
9271;DHT22;4673;53.458;9.940;2022-11-21T03:58:46;-2.30;99.70
9271;DHT22;4673;53.458;9.940;2022-11-21T04:01:12;-2.30;99.70
9271;DHT22;4673;53.458;9.940;2022-11-21T04:03:39;-2.30;99.70
9271;DHT22;4673;53.458;9.940;2022-11-21T04:06:05;-2.30;99.80
9271;DHT22;4673;53.458;9.940;2022-11-21T04:08:31;-2.30;99.80
9271;DHT22;4673;53.458;9.940;2022-11-21T04:10:56;-2.40;99.60
9271;DHT22;4673;53.458;9.940;2022-11-21T04:13:22;-2.40;99.60
9271;DHT22;4673;53.458;9.940;2022-11-21T04:15:48;-2.30;99.70
9271;DHT22;4673;53.458;9.940;2022-11-21T04:18:14;-2.50;99.60
9271;DHT22;4673;53.458;9.940;2022-11-21T04:20:40;-2.60;99.40
9271;DHT22;4673;53.458;9.940;2022-11-21T04:26:11;-2.60;99.50
9271;DHT22;4673;53.458;9.940;2022-11-21T04:28:37;-2.70;99.40
9271;DHT22;4673;53.458;9.940;2022-11-21T04:31:04;-2.70;99.40
9271;DHT22;4673;53.458;9.940;2022-11-21T04:33:30;-2.80;99.20
9271;DHT22;4673;53.458;9.940;2022-11-21T04:35:56;-2.90;99.20
9271;DHT22;4673;53.458;9.940;2022-11-21T04:38:21;-2.90;99.20
9271;DHT22;4673;53.458;9.940;2022-11-21T04:40:47;-2.90;99.20
9271;DHT22;4673;53.458;9.940;2022-11-21T04:43:12;-3.00;99.10
9271;DHT22;4673;53.458;9.940;2022-11-21T04:45:38;-3.00;99.10
9271;DHT22;4673;53.458;9.940;2022-11-21T04:48:04;-3.10;99.10
9271;DHT22;4673;53.458;9.940;2022-11-21T04:50:30;-3.10;99.10
9271;DHT22;4673;53.458;9.940;2022-11-21T04:52:56;-3.10;99.10
9271;DHT22;4673;53.458;9.940;2022-11-21T04:55:24;-3.10;99.20
9271;DHT22;4673;53.458;9.940;2022-11-21T04:57:51;-3.10;99.20
9271;DHT22;4673;53.458;9.940;2022-11-21T05:00:17;-3.20;99.10
9271;DHT22;4673;53.458;9.940;2022-11-21T05:02:43;-3.10;99.30
9271;DHT22;4673;53.458;9.940;2022-11-21T05:05:09;-3.10;99.40
9271;DHT22;4673;53.458;9.940;2022-11-21T05:07:35;-3.20;99.20
9271;DHT22;4673;53.458;9.940;2022-11-21T05:10:01;-3.20;99.10
9271;DHT22;4673;53.458;9.940;2022-11-21T05:12:27;-3.20;99.20
9271;DHT22;4673;53.458;9.940;2022-11-21T05:15:11;-3.20;99.30
9271;DHT22;4673;53.458;9.940;2022-11-21T05:17:37;-3.20;99.30
9271;DHT22;4673;53.458;9.940;2022-11-21T05:20:03;-3.20;99.30
9271;DHT22;4673;53.458;9.940;2022-11-21T05:22:29;-3.30;99.20
9271;DHT22;4673;53.458;9.940;2022-11-21T05:24:54;-3.30;99.20
9271;DHT22;4673;53.458;9.940;2022-11-21T05:27:20;-3.30;99.30
9271;DHT22;4673;53.458;9.940;2022-11-21T05:29:45;-3.30;99.30
9271;DHT22;4673;53.458;9.940;2022-11-21T05:32:11;-3.30;99.30
9271;DHT22;4673;53.458;9.940;2022-11-21T05:34:37;-3.30;99.30
9271;DHT22;4673;53.458;9.940;2022-11-21T05:37:03;-3.40;99.20
9271;DHT22;4673;53.458;9.940;2022-11-21T05:39:29;-3.40;99.20
9271;DHT22;4673;53.458;9.940;2022-11-21T05:41:54;-3.40;99.20
9271;DHT22;4673;53.458;9.940;2022-11-21T05:44:20;-3.40;99.20
9271;DHT22;4673;53.458;9.940;2022-11-21T05:46:46;-3.40;99.10
9271;DHT22;4673;53.458;9.940;2022-11-21T05:49:11;-3.50;99.20
9271;DHT22;4673;53.458;9.940;2022-11-21T05:51:37;-3.40;99.20
9271;DHT22;4673;53.458;9.940;2022-11-21T05:54:03;-3.40;99.10
9271;DHT22;4673;53.458;9.940;2022-11-21T05:56:29;-3.50;99.00
9271;DHT22;4673;53.458;9.940;2022-11-21T05:58:56;-3.50;99.00
9271;DHT22;4673;53.458;9.940;2022-11-21T06:01:22;-3.50;99.00
9271;DHT22;4673;53.458;9.940;2022-11-21T06:04:06;-3.50;99.00
9271;DHT22;4673;53.458;9.940;2022-11-21T06:06:32;-3.60;98.90
9271;DHT22;4673;53.458;9.940;2022-11-21T06:08:58;-3.60;98.80
9271;DHT22;4673;53.458;9.940;2022-11-21T06:11:23;-3.60;98.70
9271;DHT22;4673;53.458;9.940;2022-11-21T06:13:50;-3.60;98.80
9271;DHT22;4673;53.458;9.940;2022-11-21T06:16:17;-3.60;98.70
9271;DHT22;4673;53.458;9.940;2022-11-21T06:18:46;-3.50;98.80
9271;DHT22;4673;53.458;9.940;2022-11-21T06:21:23;-3.50;98.80
9271;DHT22;4673;53.458;9.940;2022-11-21T06:23:50;-3.50;98.70
9271;DHT22;4673;53.458;9.940;2022-11-21T06:26:21;-3.50;98.70
9271;DHT22;4673;53.458;9.940;2022-11-21T06:28:48;-3.50;98.60
9271;DHT22;4673;53.458;9.940;2022-11-21T06:31:18;-3.50;98.50
9271;DHT22;4673;53.458;9.940;2022-11-21T06:33:45;-3.50;98.40
9271;DHT22;4673;53.458;9.940;2022-11-21T06:36:12;-3.50;98.20
9271;DHT22;4673;53.458;9.940;2022-11-21T06:38:38;-3.50;98.10
9271;DHT22;4673;53.458;9.940;2022-11-21T06:41:12;-3.50;98.00
9271;DHT22;4673;53.458;9.940;2022-11-21T06:43:39;-3.50;97.90
9271;DHT22;4673;53.458;9.940;2022-11-21T06:46:05;-3.50;97.80
9271;DHT22;4673;53.458;9.940;2022-11-21T06:48:32;-3.50;97.70
9271;DHT22;4673;53.458;9.940;2022-11-21T06:53:37;-3.50;97.60
9271;DHT22;4673;53.458;9.940;2022-11-21T06:56:03;-3.40;97.50
9271;DHT22;4673;53.458;9.940;2022-11-21T06:58:31;-3.40;97.50
9271;DHT22;4673;53.458;9.940;2022-11-21T07:00:57;-3.40;97.40
9271;DHT22;4673;53.458;9.940;2022-11-21T07:03:23;-3.30;97.50
9271;DHT22;4673;53.458;9.940;2022-11-21T07:05:49;-3.30;97.30
9271;DHT22;4673;53.458;9.940;2022-11-21T07:08:15;-3.20;97.30
9271;DHT22;4673;53.458;9.940;2022-11-21T07:10:40;-3.10;97.40
9271;DHT22;4673;53.458;9.940;2022-11-21T07:13:06;-3.00;97.20
9271;DHT22;4673;53.458;9.940;2022-11-21T07:15:58;-3.00;97.10
9271;DHT22;4673;53.458;9.940;2022-11-21T07:18:25;-2.90;97.10
9271;DHT22;4673;53.458;9.940;2022-11-21T07:20:51;-2.80;96.90
9271;DHT22;4673;53.458;9.940;2022-11-21T07:23:16;-2.80;96.70
9271;DHT22;4673;53.458;9.940;2022-11-21T07:25:42;-2.80;96.60
9271;DHT22;4673;53.458;9.940;2022-11-21T07:28:08;-2.70;96.60
9271;DHT22;4673;53.458;9.940;2022-11-21T07:30:37;-2.60;96.50
9271;DHT22;4673;53.458;9.940;2022-11-21T07:33:05;-2.50;96.50
9271;DHT22;4673;53.458;9.940;2022-11-21T07:35:32;-2.50;96.20
9271;DHT22;4673;53.458;9.940;2022-11-21T07:37:58;-2.50;96.00
9271;DHT22;4673;53.458;9.940;2022-11-21T07:40:24;-2.50;95.80
9271;DHT22;4673;53.458;9.940;2022-11-21T07:42:49;-2.40;95.60
9271;DHT22;4673;53.458;9.940;2022-11-21T07:47:46;-2.30;95.40
9271;DHT22;4673;53.458;9.940;2022-11-21T07:50:12;-2.30;95.10
9271;DHT22;4673;53.458;9.940;2022-11-21T07:52:38;-2.30;94.90
9271;DHT22;4673;53.458;9.940;2022-11-21T07:55:04;-2.20;94.70
9271;DHT22;4673;53.458;9.940;2022-11-21T07:57:31;-2.30;94.60
9271;DHT22;4673;53.458;9.940;2022-11-21T07:59:56;-2.20;94.50
9271;DHT22;4673;53.458;9.940;2022-11-21T08:02:26;-2.20;94.40
9271;DHT22;4673;53.458;9.940;2022-11-21T08:04:53;-2.20;94.30
9271;DHT22;4673;53.458;9.940;2022-11-21T08:07:20;-2.30;94.30
9271;DHT22;4673;53.458;9.940;2022-11-21T08:09:46;-2.20;94.30
9271;DHT22;4673;53.458;9.940;2022-11-21T08:12:12;-2.20;94.30
9271;DHT22;4673;53.458;9.940;2022-11-21T08:14:38;-2.10;94.30
9271;DHT22;4673;53.458;9.940;2022-11-21T08:17:05;-2.10;94.20
9271;DHT22;4673;53.458;9.940;2022-11-21T08:19:31;-2.10;94.10
9271;DHT22;4673;53.458;9.940;2022-11-21T08:21:57;-2.10;94.10
9271;DHT22;4673;53.458;9.940;2022-11-21T08:24:23;-2.20;93.80
9271;DHT22;4673;53.458;9.940;2022-11-21T08:26:49;-2.20;93.80
9271;DHT22;4673;53.458;9.940;2022-11-21T08:29:15;-2.20;93.80
9271;DHT22;4673;53.458;9.940;2022-11-21T08:31:41;-2.20;93.80
9271;DHT22;4673;53.458;9.940;2022-11-21T08:34:07;-2.20;93.80
9271;DHT22;4673;53.458;9.940;2022-11-21T08:36:33;-2.10;93.90
9271;DHT22;4673;53.458;9.940;2022-11-21T08:38:59;-2.10;94.00
9271;DHT22;4673;53.458;9.940;2022-11-21T08:41:24;-2.00;94.10
9271;DHT22;4673;53.458;9.940;2022-11-21T08:44:09;-1.90;94.20
9271;DHT22;4673;53.458;9.940;2022-11-21T08:46:35;-1.80;94.20
9271;DHT22;4673;53.458;9.940;2022-11-21T08:49:07;-1.70;94.20
9271;DHT22;4673;53.458;9.940;2022-11-21T08:51:34;-1.70;94.10
9271;DHT22;4673;53.458;9.940;2022-11-21T08:54:00;-1.60;94.00
9271;DHT22;4673;53.458;9.940;2022-11-21T08:56:26;-1.50;93.90
9271;DHT22;4673;53.458;9.940;2022-11-21T08:58:51;-1.50;93.70
9271;DHT22;4673;53.458;9.940;2022-11-21T09:01:17;-1.50;93.70
9271;DHT22;4673;53.458;9.940;2022-11-21T09:03:43;-1.40;93.70
9271;DHT22;4673;53.458;9.940;2022-11-21T09:06:08;-1.40;93.50
9271;DHT22;4673;53.458;9.940;2022-11-21T09:08:34;-1.50;93.40
9271;DHT22;4673;53.458;9.940;2022-11-21T09:11:07;-1.50;93.50
9271;DHT22;4673;53.458;9.940;2022-11-21T09:13:34;-1.50;93.70
9271;DHT22;4673;53.458;9.940;2022-11-21T09:16:00;-1.40;93.80
9271;DHT22;4673;53.458;9.940;2022-11-21T09:18:45;-1.40;94.00
9271;DHT22;4673;53.458;9.940;2022-11-21T09:21:14;-1.30;94.20
9271;DHT22;4673;53.458;9.940;2022-11-21T09:23:41;-1.30;94.20
9271;DHT22;4673;53.458;9.940;2022-11-21T09:26:07;-1.20;94.30
9271;DHT22;4673;53.458;9.940;2022-11-21T09:28:32;-1.20;94.30
9271;DHT22;4673;53.458;9.940;2022-11-21T09:31:01;-1.20;94.30
9271;DHT22;4673;53.458;9.940;2022-11-21T09:33:27;-1.20;94.50
9271;DHT22;4673;53.458;9.940;2022-11-21T09:35:53;-1.10;94.60
9271;DHT22;4673;53.458;9.940;2022-11-21T09:38:18;-1.00;94.70
9271;DHT22;4673;53.458;9.940;2022-11-21T09:40:46;-1.00;94.80
9271;DHT22;4673;53.458;9.940;2022-11-21T09:46:03;-0.90;94.90
9271;DHT22;4673;53.458;9.940;2022-11-21T09:48:38;-0.70;95.20
9271;DHT22;4673;53.458;9.940;2022-11-21T09:51:11;-0.70;95.20
9271;DHT22;4673;53.458;9.940;2022-11-21T09:53:55;-0.60;95.10
9271;DHT22;4673;53.458;9.940;2022-11-21T09:56:23;-0.50;95.00
9271;DHT22;4673;53.458;9.940;2022-11-21T10:01:45;-0.40;94.80
9271;DHT22;4673;53.458;9.940;2022-11-21T10:04:11;-0.30;94.80
9271;DHT22;4673;53.458;9.940;2022-11-21T10:06:51;-0.30;94.50
9271;DHT22;4673;53.458;9.940;2022-11-21T10:09:55;-0.30;94.40
9271;DHT22;4673;53.458;9.940;2022-11-21T10:29:00;-0.10;92.90
9271;DHT22;4673;53.458;9.940;2022-11-21T10:31:35;0.00;92.90
9271;DHT22;4673;53.458;9.940;2022-11-21T10:34:04;0.10;92.80
9271;DHT22;4673;53.458;9.940;2022-11-21T10:36:39;0.20;92.80
9271;DHT22;4673;53.458;9.940;2022-11-21T10:39:45;0.20;92.50
9271;DHT22;4673;53.458;9.940;2022-11-21T10:42:52;0.30;92.40
9271;DHT22;4673;53.458;9.940;2022-11-21T10:45:15;0.30;92.30
9271;DHT22;4673;53.458;9.940;2022-11-21T10:47:42;0.30;92.00
9271;DHT22;4673;53.458;9.940;2022-11-21T10:52:39;0.40;91.50
9271;DHT22;4673;53.458;9.940;2022-11-21T10:55:12;0.40;91.10
9271;DHT22;4673;53.458;9.940;2022-11-21T10:57:39;0.40;90.90
9271;DHT22;4673;53.458;9.940;2022-11-21T11:00:18;0.40;90.60
9271;DHT22;4673;53.458;9.940;2022-11-21T11:03:14;0.50;90.50
9271;DHT22;4673;53.458;9.940;2022-11-21T11:05:53;0.50;90.20
9271;DHT22;4673;53.458;9.940;2022-11-21T11:08:20;0.50;89.90
9271;DHT22;4673;53.458;9.940;2022-11-21T11:11:01;0.60;89.60
9271;DHT22;4673;53.458;9.940;2022-11-21T11:13:28;0.70;89.20
9271;DHT22;4673;53.458;9.940;2022-11-21T11:18:28;0.80;88.90
9271;DHT22;4673;53.458;9.940;2022-11-21T11:21:18;0.80;88.70
9271;DHT22;4673;53.458;9.940;2022-11-21T11:23:45;0.80;88.20
9271;DHT22;4673;53.458;9.940;2022-11-21T11:26:26;0.80;87.80
9271;DHT22;4673;53.458;9.940;2022-11-21T11:28:58;0.90;88.00
9271;DHT22;4673;53.458;9.940;2022-11-21T11:48:36;1.00;86.60
9271;DHT22;4673;53.458;9.940;2022-11-21T11:51:17;1.00;86.50
9271;DHT22;4673;53.458;9.940;2022-11-21T11:53:52;1.00;86.20
9271;DHT22;4673;53.458;9.940;2022-11-21T11:59:09;0.90;85.70
9271;DHT22;4673;53.458;9.940;2022-11-21T12:04:19;1.10;85.50
9271;DHT22;4673;53.458;9.940;2022-11-21T12:06:55;1.10;85.60
9271;DHT22;4673;53.458;9.940;2022-11-21T12:24:07;1.00;84.30
9271;DHT22;4673;53.458;9.940;2022-11-21T12:40:47;1.00;83.40
9271;DHT22;4673;53.458;9.940;2022-11-21T12:51:41;1.00;84.10
9271;DHT22;4673;53.458;9.940;2022-11-21T12:57:18;1.10;84.30
9271;DHT22;4673;53.458;9.940;2022-11-21T13:04:56;1.20;84.30
9271;DHT22;4673;53.458;9.940;2022-11-21T13:07:24;1.20;84.20
9271;DHT22;4673;53.458;9.940;2022-11-21T13:09:55;1.20;84.30
9271;DHT22;4673;53.458;9.940;2022-11-21T13:15:15;1.00;84.40
9271;DHT22;4673;53.458;9.940;2022-11-21T13:20:39;1.00;85.10
9271;DHT22;4673;53.458;9.940;2022-11-21T13:23:35;1.00;85.30
9271;DHT22;4673;53.458;9.940;2022-11-21T13:26:49;1.00;85.60
9271;DHT22;4673;53.458;9.940;2022-11-21T13:28:47;1.00;85.50
9271;DHT22;4673;53.458;9.940;2022-11-21T13:31:27;1.00;85.40
9271;DHT22;4673;53.458;9.940;2022-11-21T13:33:54;1.00;85.70
9271;DHT22;4673;53.458;9.940;2022-11-21T14:20:07;0.60;87.90
9271;DHT22;4673;53.458;9.940;2022-11-21T14:22:39;0.50;88.10
9271;DHT22;4673;53.458;9.940;2022-11-21T14:25:08;0.50;88.30
9271;DHT22;4673;53.458;9.940;2022-11-21T14:27:39;0.60;88.50
9271;DHT22;4673;53.458;9.940;2022-11-21T14:30:24;0.50;88.70
9271;DHT22;4673;53.458;9.940;2022-11-21T14:32:51;0.40;88.60
9271;DHT22;4673;53.458;9.940;2022-11-21T14:35:22;0.40;88.80
9271;DHT22;4673;53.458;9.940;2022-11-21T14:37:48;0.40;89.10
9271;DHT22;4673;53.458;9.940;2022-11-21T14:40:23;0.30;89.20
9271;DHT22;4673;53.458;9.940;2022-11-21T14:42:49;0.30;89.40
9271;DHT22;4673;53.458;9.940;2022-11-21T14:45:20;0.20;89.40
9271;DHT22;4673;53.458;9.940;2022-11-21T14:47:51;0.20;89.50
9271;DHT22;4673;53.458;9.940;2022-11-21T14:50:28;0.10;89.60
9271;DHT22;4673;53.458;9.940;2022-11-21T14:52:55;0.10;89.80
9271;DHT22;4673;53.458;9.940;2022-11-21T14:55:29;0.00;89.70
9271;DHT22;4673;53.458;9.940;2022-11-21T14:57:57;-0.10;90.00
9271;DHT22;4673;53.458;9.940;2022-11-21T15:00:26;-0.10;90.00
9271;DHT22;4673;53.458;9.940;2022-11-21T15:02:54;-0.20;90.00
9271;DHT22;4673;53.458;9.940;2022-11-21T15:05:20;-0.30;90.10
9271;DHT22;4673;53.458;9.940;2022-11-21T15:07:48;-0.30;90.20
9271;DHT22;4673;53.458;9.940;2022-11-21T15:10:20;-0.40;90.20
9271;DHT22;4673;53.458;9.940;2022-11-21T15:18:02;-0.60;90.40
9271;DHT22;4673;53.458;9.940;2022-11-21T15:20:28;-0.60;90.60
9271;DHT22;4673;53.458;9.940;2022-11-21T15:22:59;-0.70;90.70
9271;DHT22;4673;53.458;9.940;2022-11-21T15:25:27;-0.70;90.80
9271;DHT22;4673;53.458;9.940;2022-11-21T15:30:30;-0.90;90.90
9271;DHT22;4673;53.458;9.940;2022-11-21T15:35:27;-1.00;91.20
9271;DHT22;4673;53.458;9.940;2022-11-21T15:37:53;-1.00;91.20
9271;DHT22;4673;53.458;9.940;2022-11-21T15:40:20;-1.10;91.30
9271;DHT22;4673;53.458;9.940;2022-11-21T15:42:46;-1.20;91.30
9271;DHT22;4673;53.458;9.940;2022-11-21T15:47:41;-1.30;91.70
9271;DHT22;4673;53.458;9.940;2022-11-21T15:50:07;-1.30;91.80
9271;DHT22;4673;53.458;9.940;2022-11-21T15:52:47;-1.40;91.90
9271;DHT22;4673;53.458;9.940;2022-11-21T15:55:21;-1.50;92.00
9271;DHT22;4673;53.458;9.940;2022-11-21T15:57:48;-1.50;92.30
9271;DHT22;4673;53.458;9.940;2022-11-21T16:00:14;-1.50;92.40
9271;DHT22;4673;53.458;9.940;2022-11-21T16:02:40;-1.60;92.50
9271;DHT22;4673;53.458;9.940;2022-11-21T16:05:07;-1.60;92.60
9271;DHT22;4673;53.458;9.940;2022-11-21T16:07:35;-1.70;92.70
9271;DHT22;4673;53.458;9.940;2022-11-21T16:10:00;-1.70;92.90
9271;DHT22;4673;53.458;9.940;2022-11-21T16:12:26;-1.70;93.00
9271;DHT22;4673;53.458;9.940;2022-11-21T16:14:52;-1.70;93.30
9271;DHT22;4673;53.458;9.940;2022-11-21T16:17:17;-1.60;93.30
9271;DHT22;4673;53.458;9.940;2022-11-21T16:19:44;-1.60;93.40
9271;DHT22;4673;53.458;9.940;2022-11-21T16:22:10;-1.60;93.40
9271;DHT22;4673;53.458;9.940;2022-11-21T16:24:35;-1.60;93.30
9271;DHT22;4673;53.458;9.940;2022-11-21T16:27:01;-1.70;93.30
9271;DHT22;4673;53.458;9.940;2022-11-21T16:29:27;-1.70;93.30
9271;DHT22;4673;53.458;9.940;2022-11-21T16:31:52;-1.70;93.40
9271;DHT22;4673;53.458;9.940;2022-11-21T16:34:20;-1.80;93.40
9271;DHT22;4673;53.458;9.940;2022-11-21T16:36:47;-1.80;93.50
9271;DHT22;4673;53.458;9.940;2022-11-21T16:39:12;-1.80;93.70
9271;DHT22;4673;53.458;9.940;2022-11-21T16:41:38;-1.80;93.80
9271;DHT22;4673;53.458;9.940;2022-11-21T16:44:11;-1.80;93.80
9271;DHT22;4673;53.458;9.940;2022-11-21T16:46:41;-1.70;93.90
9271;DHT22;4673;53.458;9.940;2022-11-21T16:49:08;-1.70;93.90
9271;DHT22;4673;53.458;9.940;2022-11-21T16:51:34;-1.70;93.90
9271;DHT22;4673;53.458;9.940;2022-11-21T16:53:59;-1.70;93.80
9271;DHT22;4673;53.458;9.940;2022-11-21T16:56:25;-1.80;93.80
9271;DHT22;4673;53.458;9.940;2022-11-21T16:58:51;-1.80;93.80
9271;DHT22;4673;53.458;9.940;2022-11-21T17:01:19;-1.80;93.80
9271;DHT22;4673;53.458;9.940;2022-11-21T17:03:47;-1.80;93.80
9271;DHT22;4673;53.458;9.940;2022-11-21T17:06:15;-1.80;93.90
9271;DHT22;4673;53.458;9.940;2022-11-21T17:08:41;-1.80;93.80
9271;DHT22;4673;53.458;9.940;2022-11-21T17:11:33;-1.80;93.90
9271;DHT22;4673;53.458;9.940;2022-11-21T17:14:01;-1.80;93.90
9271;DHT22;4673;53.458;9.940;2022-11-21T17:16:27;-1.80;93.80
9271;DHT22;4673;53.458;9.940;2022-11-21T17:18:55;-1.80;93.90
9271;DHT22;4673;53.458;9.940;2022-11-21T17:21:21;-1.80;94.00
9271;DHT22;4673;53.458;9.940;2022-11-21T17:23:47;-1.80;94.00
9271;DHT22;4673;53.458;9.940;2022-11-21T17:26:15;-1.80;93.90
9271;DHT22;4673;53.458;9.940;2022-11-21T17:28:41;-1.80;93.80
9271;DHT22;4673;53.458;9.940;2022-11-21T17:31:12;-1.90;93.80
9271;DHT22;4673;53.458;9.940;2022-11-21T17:33:38;-1.90;93.90
9271;DHT22;4673;53.458;9.940;2022-11-21T17:36:05;-1.90;93.90
9271;DHT22;4673;53.458;9.940;2022-11-21T17:38:31;-1.90;93.90
9271;DHT22;4673;53.458;9.940;2022-11-21T17:41:01;-1.90;93.80
9271;DHT22;4673;53.458;9.940;2022-11-21T17:43:27;-2.00;93.90
9271;DHT22;4673;53.458;9.940;2022-11-21T17:45:57;-2.00;93.90
9271;DHT22;4673;53.458;9.940;2022-11-21T17:48:23;-2.00;94.00
9271;DHT22;4673;53.458;9.940;2022-11-21T17:51:00;-2.00;94.00
9271;DHT22;4673;53.458;9.940;2022-11-21T17:53:30;-2.10;93.90
9271;DHT22;4673;53.458;9.940;2022-11-21T17:55:57;-2.10;94.00
9271;DHT22;4673;53.458;9.940;2022-11-21T17:58:24;-2.10;94.00
9271;DHT22;4673;53.458;9.940;2022-11-21T18:00:57;-2.20;94.10
9271;DHT22;4673;53.458;9.940;2022-11-21T18:03:23;-2.20;94.00
9271;DHT22;4673;53.458;9.940;2022-11-21T18:05:58;-2.20;94.10
9271;DHT22;4673;53.458;9.940;2022-11-21T18:08:25;-2.20;94.30
9271;DHT22;4673;53.458;9.940;2022-11-21T18:10:51;-2.30;94.20
9271;DHT22;4673;53.458;9.940;2022-11-21T18:13:18;-2.30;94.30
9271;DHT22;4673;53.458;9.940;2022-11-21T18:15:44;-2.30;94.40
9271;DHT22;4673;53.458;9.940;2022-11-21T18:18:09;-2.20;94.50
9271;DHT22;4673;53.458;9.940;2022-11-21T18:20:35;-2.30;94.60
9271;DHT22;4673;53.458;9.940;2022-11-21T18:23:00;-2.20;94.70
9271;DHT22;4673;53.458;9.940;2022-11-21T18:25:26;-2.10;95.00
9271;DHT22;4673;53.458;9.940;2022-11-21T18:27:52;-2.10;95.10
9271;DHT22;4673;53.458;9.940;2022-11-21T18:30:17;-2.00;95.00
9271;DHT22;4673;53.458;9.940;2022-11-21T18:32:47;-2.00;95.00
9271;DHT22;4673;53.458;9.940;2022-11-21T18:35:13;-2.00;95.00
9271;DHT22;4673;53.458;9.940;2022-11-21T18:37:38;-2.00;95.00
9271;DHT22;4673;53.458;9.940;2022-11-21T18:40:04;-2.00;95.00
9271;DHT22;4673;53.458;9.940;2022-11-21T18:42:31;-1.90;95.10
9271;DHT22;4673;53.458;9.940;2022-11-21T18:44:56;-2.00;94.90
9271;DHT22;4673;53.458;9.940;2022-11-21T18:47:22;-2.10;94.80
9271;DHT22;4673;53.458;9.940;2022-11-21T18:49:47;-2.10;94.80
9271;DHT22;4673;53.458;9.940;2022-11-21T18:52:13;-2.20;94.70
9271;DHT22;4673;53.458;9.940;2022-11-21T18:54:39;-2.20;94.80
9271;DHT22;4673;53.458;9.940;2022-11-21T18:57:04;-2.20;94.90
9271;DHT22;4673;53.458;9.940;2022-11-21T18:59:30;-2.30;94.80
9271;DHT22;4673;53.458;9.940;2022-11-21T19:01:56;-2.30;94.90
9271;DHT22;4673;53.458;9.940;2022-11-21T19:04:22;-2.30;95.10